Latest Weather Observations for Lake Macquarie - Cooranbong

IDN60901

Issued at 1:01 pm EST Thursday 25 May 2017 (issued every 10 minutes, with the page automatically refreshed every 10 minutes)

About weather observations | Map of Sydney area stations | Latest observations for Sydney area | Other Formats
Station Details ID: 061412 Name: LAKE MACQUARIE AWS Lat: -33.09 Lon: 151.46 Height: 6.0 m
Data from the previous 72 hours. | See also: Recent months at Lake Macquarie - Cooranbong
Date/Time
EST
Temp
°C
App
Temp
°C
Dew
Point
°C
Rel
Hum
%
Delta-T
°C
Wind Press
QNH
hPa
Press
MSL
hPa
Rain since
9am
mm
Dir  Spd
km/h
Gust
km/h
Spd
kts
Gust
kts
25/01:00pm 20.1 18.9 8.1 46 6.2 NNE 4 6 2 3 1019.5 1019.5 0.0
25/12:30pm 19.5 18.6 7.6 46 6.1 ESE 2 7 1 4 1019.8 1019.8 0.0
25/12:00pm 19.6 18.7 9.2 51 5.5 SW 4 9 2 5 1020.3 1020.3 0.0
25/11:30am 19.2 17.6 8.8 51 5.4 WSW 7 15 4 8 1020.7 1020.7 0.0
25/11:00am 18.4 16.6 7.8 50 5.4 SSW 7 13 4 7 1021.0 1021.0 0.0
25/10:30am 17.7 15.7 6.9 49 5.4 WSW 7 15 4 8 1021.2 1021.2 0.0
25/10:00am 17.6 15.9 7.4 51 5.1 SW 6 13 3 7 1021.3 1021.3 0.0
25/09:30am 16.5 14.6 6.9 53 4.7 WSW 6 11 3 6 1021.5 1021.5 0.0
25/09:00am 15.0 14.9 9.6 70 2.8 CALM 0 4 0 2 1021.5 1021.5 0.0
25/08:30am 11.5 11.6 10.1 91 0.7 CALM 0 0 0 0 1021.3 1021.3 0.0
25/08:00am 9.3 9.0 8.7 96 0.3 CALM 0 0 0 0 1021.1 1021.1 0.0
25/07:30am 6.9 6.0 6.2 95 0.3 CALM 0 0 0 0 1020.9 1020.9 0.0
25/07:00am 6.3 5.3 5.4 94 0.4 CALM 0 0 0 0 1020.7 1020.7 0.0
25/06:30am 6.5 5.5 5.5 93 0.4 CALM 0 0 0 0 1020.3 1020.3 0.0
25/06:00am 6.7 5.7 5.7 93 0.4 CALM 0 0 0 0 1020.0 1020.0 0.0
25/05:30am 6.8 5.8 5.4 91 0.6 CALM 0 0 0 0 1019.7 1019.7 0.0
25/05:00am 6.7 5.6 5.2 90 0.7 CALM 0 0 0 0 1019.3 1019.3 0.0
25/04:30am 7.4 6.5 5.9 90 0.7 CALM 0 0 0 0 1019.2 1019.2 0.0
25/04:00am 7.8 7.0 6.3 90 0.7 CALM 0 0 0 0 1019.1 1019.1 0.0
25/03:30am 7.6 6.6 5.6 87 0.9 CALM 0 0 0 0 1018.9 1018.9 0.0
25/03:00am 8.0 7.1 6.0 87 0.9 CALM 0 0 0 0 1018.8 1018.8 0.0
25/02:30am 8.3 7.4 5.9 85 1.1 CALM 0 0 0 0 1018.7 1018.7 0.0
25/02:00am 8.6 7.7 5.9 83 1.2 CALM 0 2 0 1 1018.8 1018.8 0.0
25/01:30am 9.2 8.4 6.3 82 1.3 CALM 0 0 0 0 1018.8 1018.8 0.0
25/01:00am 8.7 7.7 5.8 82 1.3 CALM 0 0 0 0 1018.8 1018.8 0.0
25/12:30am 9.4 8.5 5.9 79 1.6 CALM 0 0 0 0 1018.8 1018.8 0.0
25/12:00am 10.2 9.3 6.2 76 1.9 CALM 0 4 0 2 1018.8 1018.8 0.0
 
Date/Time
EST
Temp
°C
App
Temp
°C
Dew
Point
°C
Rel
Hum
%
Delta-T
°C
Wind Press
QNH
hPa
Press
MSL
hPa
Rain since
9am
mm
Dir  Spd
km/h
Gust
km/h
Spd
kts
Gust
kts
24/11:30pm 10.2 8.8 5.6 73 2.1 N 2 4 1 2 1018.9 1018.9 0.0
24/11:00pm 10.9 9.7 6.5 74 2.1 NW 2 6 1 3 1018.8 1018.8 0.0
24/10:30pm 10.1 9.4 6.8 80 1.6 CALM 0 0 0 0 1018.7 1018.7 0.0
24/10:00pm 10.2 9.1 6.7 79 1.6 W 2 6 1 3 1018.6 1018.6 0.0
24/09:30pm 10.5 9.8 7.0 79 1.7 CALM 0 0 0 0 1018.7 1018.7 0.0
24/09:00pm 11.0 10.2 6.7 75 2.0 CALM 0 0 0 0 1018.3 1018.3 0.0
24/08:30pm 13.4 12.2 6.3 62 3.4 WSW 2 6 1 3 1018.0 1018.0 0.0
24/08:00pm 13.5 12.2 7.5 67 2.9 SW 4 9 2 5 1017.8 1017.8 0.0
24/07:30pm 13.3 11.9 7.3 67 2.9 SW 4 7 2 4 1017.4 1017.4 0.0
24/07:00pm 15.2 13.4 7.0 58 4.0 WSW 6 11 3 6 1016.9 1016.9 0.0
24/06:30pm 14.2 13.3 7.9 66 3.1 WSW 2 7 1 4 1016.3 1016.3 0.0
24/06:00pm 14.2 13.7 7.7 65 3.2 CALM 0 4 0 2 1015.8 1015.8 0.0
24/05:30pm 16.0 14.6 8.7 62 3.7 W 6 15 3 8 1015.2 1015.2 0.0
24/05:00pm 17.4 16.4 7.2 51 5.1 W 2 6 1 3 1014.7 1014.7 0.0
24/04:30pm 20.5 18.1 4.5 35 7.8 W 6 11 3 6 1014.0 1014.0 0.0
24/04:00pm 22.3 18.7 2.9 28 9.2 W 11 19 6 10 1013.6 1013.6 0.0
24/03:30pm 23.0 19.6 4.0 29 9.3 W 11 19 6 10 1013.3 1013.3 0.0
24/03:00pm 23.2 20.2 4.2 29 9.3 W 9 19 5 10 1013.0 1013.0 0.0
24/02:30pm 23.6 21.4 7.7 36 8.3 W 9 17 5 9 1012.6 1012.6 0.0
24/02:00pm 23.2 20.6 7.7 37 8.1 WNW 11 22 6 12 1012.7 1012.7 0.0
24/01:30pm 23.6 20.7 8.1 37 8.2 NW 13 24 7 13 1012.7 1012.7 0.0
24/01:00pm 23.5 21.4 9.9 42 7.4 WNW 11 19 6 10 1012.9 1012.9 0.0
24/12:30pm 23.1 21.2 10.5 45 6.9 WNW 11 20 6 11 1013.2 1013.2 0.0
24/12:00pm 22.8 21.1 11.2 48 6.5 WNW 11 24 6 13 1013.7 1013.7 0.0
24/11:30am 22.4 21.2 11.5 50 6.1 WNW 9 20 5 11 1014.1 1014.1 0.0
24/11:00am 22.7 22.7 13.7 56 5.2 NW 6 13 3 7 1014.8 1014.8 0.0
24/10:30am 21.4 21.0 13.1 59 4.7 NW 7 15 4 8 1015.3 1015.3 0.0
24/10:00am 20.3 21.6 14.2 68 3.5 CALM 0 0 0 0 1015.5 1015.5 0.0
24/09:30am 18.5 19.8 14.2 76 2.5 CALM 0 0 0 0 1015.8 1015.8 0.0
24/09:00am 16.9 18.4 14.7 87 1.3 CALM 0 0 0 0 1015.7 1015.7 1.8
24/08:30am 15.0 16.6 14.8 99 0.1 CALM 0 2 0 1 1015.9 1015.9 1.8
24/08:00am 13.7 14.0 13.5 99 0.1 N 4 4 2 2 1016.1 1016.1 1.8
24/07:30am 13.1 14.0 12.9 99 0.1 CALM 0 0 0 0 1016.1 1016.1 1.8
24/07:00am 13.0 13.9 12.8 99 0.1 CALM 0 2 0 1 1015.9 1015.9 1.8
24/06:30am 13.5 14.2 13.3 99 0.1 S 2 4 1 2 1015.7 1015.7 1.8
24/06:00am 12.9 13.0 12.7 99 0.1 S 4 7 2 4 1015.5 1015.5 1.8
24/05:30am 12.4 11.9 12.2 99 0.1 NNW 6 9 3 5 1015.1 1015.1 0.2
24/05:00am 11.9 11.3 11.7 99 0.1 WNW 6 13 3 7 1015.6 1015.6 0.2
24/04:30am 11.6 11.3 11.4 99 0.1 S 4 11 2 6 1015.3 1015.3 0.0
24/04:00am 10.0 9.9 9.5 97 0.2 CALM 0 0 0 0 1014.8 1014.8 0.0
24/03:30am 9.7 9.2 9.2 97 0.2 NW 2 4 1 2 1015.0 1015.0 0.0
24/03:00am 9.9 9.8 9.4 97 0.2 CALM 0 6 0 3 1015.2 1015.2 0.0
24/02:30am 9.9 9.8 9.3 96 0.3 CALM 0 4 0 2 1015.4 1015.4 0.0
24/02:00am 10.3 10.3 9.7 96 0.3 CALM 0 4 0 2 1015.6 1015.6 0.0
24/01:30am 10.7 10.8 10.1 96 0.3 CALM 0 0 0 0 1016.0 1016.0 0.0
24/01:00am 10.9 11.0 10.3 96 0.3 CALM 0 0 0 0 1016.4 1016.4 0.0
24/12:30am 11.1 11.3 10.5 96 0.3 CALM 0 0 0 0 1017.0 1017.0 0.0
24/12:00am 11.5 11.8 10.9 96 0.3 CALM 0 0 0 0 1017.4 1017.4 0.0
 
Date/Time
EST
Temp
°C
App
Temp
°C
Dew
Point
°C
Rel
Hum
%
Delta-T
°C
Wind Press
QNH
hPa
Press
MSL
hPa
Rain since
9am
mm
Dir  Spd
km/h
Gust
km/h
Spd
kts
Gust
kts
23/11:30pm 11.6 11.9 11.0 96 0.3 CALM 0 2 0 1 1017.7 1017.7 0.0
23/11:00pm 12.1 12.6 11.5 96 0.3 CALM 0 0 0 0 1017.8 1017.8 0.0
23/10:30pm 12.4 12.9 11.6 95 0.4 CALM 0 0 0 0 1018.1 1018.1 0.0
23/10:00pm 12.8 13.4 12.0 95 0.4 CALM 0 0 0 0 1018.2 1018.2 0.0
23/09:30pm 13.1 13.8 12.3 95 0.4 CALM 0 0 0 0 1018.2 1018.2 0.0
23/09:00pm 13.5 14.3 12.6 94 0.5 CALM 0 0 0 0 1018.1 1018.1 0.0
23/08:30pm 13.4 14.1 12.3 93 0.6 CALM 0 0 0 0 1018.3 1018.3 0.0
23/08:00pm 14.4 15.1 13.3 93 0.6 NW 2 4 1 2 1018.3 1018.3 0.0
23/07:30pm 14.9 16.1 13.8 93 0.6 CALM 0 0 0 0 1018.4 1018.4 0.0
23/07:00pm 14.8 15.8 13.2 90 0.9 CALM 0 2 0 1 1018.3 1018.3 0.0
23/06:30pm 16.2 17.6 14.4 89 1.0 CALM 0 0 0 0 1018.3 1018.3 0.0
23/06:00pm 16.8 17.4 14.3 85 1.4 N 4 6 2 3 1018.1 1018.1 0.0
23/05:30pm 17.8 18.4 14.3 80 2.0 NW 4 6 2 3 1018.2 1018.2 0.0
23/05:00pm 18.4 19.7 14.1 76 2.5 CALM 0 4 0 2 1017.8 1017.8 0.0
23/04:30pm 19.1 20.4 14.1 73 2.9 CALM 0 2 0 1 1017.7 1017.7 0.0
23/04:00pm 21.0 21.3 13.4 62 4.4 N 4 6 2 3 1017.7 1017.7 0.0
23/03:30pm 22.5 22.3 13.0 55 5.4 NNE 6 9 3 5 1017.7 1017.7 0.0
23/03:00pm 22.8 22.6 13.6 56 5.3 NNE 7 13 4 7 1017.8 1017.8 0.0
23/02:30pm 23.2 22.8 13.1 53 5.8 NNW 7 13 4 7 1017.7 1017.7 0.0
23/02:00pm 23.3 22.6 13.2 53 5.8 NNW 9 17 5 9 1017.9 1017.9 0.0
23/01:30pm 22.9 21.9 12.2 51 6.1 N 9 17 5 9 1018.2 1018.2 0.0
23/01:00pm 23.2 22.3 12.5 51 6.1 NNE 9 15 5 8 1018.5 1018.5 0.0
23/12:30pm 23.2 23.5 14.5 58 5.1 NE 6 13 3 7 1019.0 1019.0 0.0
23/12:00pm 22.4 22.7 14.5 61 4.6 NNE 6 9 3 5 1019.7 1019.7 0.0
23/11:30am 21.9 22.3 14.8 64 4.2 NNE 6 9 3 5 1020.2 1020.2 0.0
23/11:00am 21.7 22.4 15.5 68 3.7 NNE 6 9 3 5 1020.9 1020.9 0.0
23/10:30am 20.6 21.4 14.9 70 3.3 NNE 4 7 2 4 1021.4 1021.4 0.0
23/10:00am 19.7 20.9 14.9 74 2.8 NE 2 6 1 3 1021.8 1021.8 0.0
23/09:30am 18.0 20.7 17.7 98 0.2 CALM 0 0 0 0 1022.0 1022.0 0.0
23/09:00am 16.2 18.3 16.2 100 0.0 CALM 0 0 0 0 1022.2 1022.2 0.0
23/08:30am 14.9 16.4 14.7 99 0.1 CALM 0 0 0 0 1022.4 1022.4 0.0
23/08:00am 13.4 14.4 13.2 99 0.1 CALM 0 0 0 0 1022.3 1022.3 0.0
23/07:30am 11.9 12.4 11.6 98 0.2 CALM 0 0 0 0 1022.2 1022.2 0.0
23/07:00am 11.3 11.6 11.0 98 0.2 CALM 0 0 0 0 1021.7 1021.7 0.0
23/06:30am 11.7 12.1 11.4 98 0.2 CALM 0 0 0 0 1021.3 1021.3 0.0
23/06:00am 12.2 12.7 11.7 97 0.3 CALM 0 0 0 0 1021.1 1021.1 0.0
23/05:30am 12.1 12.6 11.6 97 0.3 CALM 0 0 0 0 1021.0 1021.0 0.0
23/05:00am 12.1 12.6 11.5 96 0.3 CALM 0 0 0 0 1021.2 1021.2 0.0
23/04:30am 12.4 13.0 11.8 96 0.3 CALM 0 0 0 0 1021.1 1021.1 0.0
23/04:00am 12.6 13.2 12.0 96 0.3 CALM 0 0 0 0 1021.2 1021.2 0.0
23/03:30am 13.1 13.8 12.3 95 0.4 CALM 0 0 0 0 1021.3 1021.3 0.0
23/03:00am 13.9 14.9 13.1 95 0.4 CALM 0 0 0 0 1021.4 1021.4 0.0
23/02:30am 14.4 15.5 13.6 95 0.4 CALM 0 0 0 0 1021.5 1021.5 0.0
23/02:00am 14.6 15.7 13.6 94 0.6 CALM 0 0 0 0 1021.6 1021.6 0.0
23/01:30am 15.2 16.6 14.4 95 0.5 CALM 0 0 0 0 1021.9 1021.9 0.0
23/01:00am 15.3 16.7 14.5 95 0.5 CALM 0 0 0 0 1022.2 1022.2 0.0
23/12:30am 15.4 16.9 14.6 95 0.5 CALM 0 0 0 0 1022.4 1022.4 0.0
23/12:00am 15.5 16.9 14.5 94 0.6 CALM 0 0 0 0 1022.7 1022.7 0.0
 
Date/Time
EST
Temp
°C
App
Temp
°C
Dew
Point
°C
Rel
Hum
%
Delta-T
°C
Wind Press
QNH
hPa
Press
MSL
hPa
Rain since
9am
mm
Dir  Spd
km/h
Gust
km/h
Spd
kts
Gust
kts
22/11:30pm 15.6 17.2 14.8 95 0.5 CALM 0 0 0 0 1022.7 1022.7 0.0
22/11:00pm 15.7 17.3 14.9 95 0.5 CALM 0 0 0 0 1023.0 1023.0 0.0
22/10:30pm 15.7 17.2 14.7 94 0.6 CALM 0 0 0 0 1023.2 1023.2 0.0
22/10:00pm 15.9 17.5 14.9 94 0.6 CALM 0 0 0 0 1023.3 1023.3 0.0
22/09:30pm 15.8 17.3 14.7 93 0.6 CALM 0 0 0 0 1023.3 1023.3 0.0
22/09:00pm 16.1 17.7 14.8 92 0.7 CALM 0 0 0 0 1023.1 1023.1 0.0
22/08:30pm 16.7 18.4 15.1 90 0.9 CALM 0 0 0 0 1023.0 1023.0 0.0
22/08:00pm 17.1 18.9 15.4 90 1.0 CALM 0 0 0 0 1023.1 1023.1 0.0
22/07:30pm 17.1 18.9 15.4 90 1.0 CALM 0 0 0 0 1022.9 1022.9 0.0
22/07:00pm 17.2 19.0 15.4 89 1.0 CALM 0 0 0 0 1022.9 1022.9 0.0
22/06:30pm 17.3 19.0 15.3 88 1.2 CALM 0 0 0 0 1022.6 1022.6 0.0
22/06:00pm 17.5 19.2 15.1 86 1.4 CALM 0 0 0 0 1022.4 1022.4 0.0
22/05:30pm 17.9 19.6 15.2 84 1.6 CALM 0 0 0 0 1022.2 1022.2 0.0
22/05:00pm 18.6 20.3 15.1 80 2.0 CALM 0 0 0 0 1022.0 1022.0 0.0
22/04:30pm 19.1 20.3 15.0 77 2.4 SW 2 2 1 1 1022.0 1022.0 0.0
22/04:00pm 19.6 20.6 14.2 71 3.1 S 2 6 1 3 1021.9 1021.9 0.0
22/03:30pm 20.0 20.2 14.1 69 3.4 SE 6 9 3 5 1021.9 1021.9 0.0
22/03:00pm 19.9 20.7 14.7 72 3.0 ESE 4 7 2 4 1021.9 1021.9 0.0
22/02:30pm 20.2 20.4 14.1 68 3.5 E 6 9 3 5 1021.9 1021.9 0.0
22/02:00pm 20.3 20.2 14.0 67 3.6 SE 7 13 4 7 1022.0 1022.0 0.0
22/01:30pm 20.4 20.5 13.8 66 3.8 ESE 6 11 3 6 1022.1 1022.1 0.0

Latest Capital City Observations: Canberra | Sydney | Melbourne | Brisbane | Adelaide | Perth | Hobart | Darwin

Other Formats:

Comma delimited format used in spreadsheet applications
http://www.bom.gov.au/fwo/IDN60901/IDN60901.95767.axf

JavaScript Object Notation format (JSON) in row-major order
http://www.bom.gov.au/fwo/IDN60901/IDN60901.95767.json